Benalla, Victoria

8:26 AM AEST on July 24, 2016 (GMT +1000)
Salisbury Street Benalla | | Change Station

Elev 564 ft 36.55 °S, 145.99 °E | Updated 9 seconds ago

Overcast
Overcast
35.6 °F
Feels Like 36 °F
N
0.0
Wind Variable Wind from East
Gusts 0.0 mph

Today
High -- | Low -- °F
--% Chance of Precip.
Yesterday
High -- | Low -- °F
Precip. -- in
Pressure 29.95 in
Visibility 6.2 miles
Clouds Overcast 6900 ft
Windchill 36 °F
Dew Point 33 °F
Humidity 91%
Rainfall 0.00 in
Snow Depth Not available.
7:20 AM 5:25 PM
Waning Gibbous, 82% visible
METAR YWGT 232200Z AUTO 00000KT 9999 // OVC069 02/02 Q1014
Pressure 29.95 in
Visibility 6.2 miles
Clouds Overcast 6900 ft
Windchill 36 °F
Dew Point 33 °F
Humidity 91%
Rainfall 0.00 in
Snow Depth Not available.
7:20 AM 5:25 PM
Waning Gibbous, 82% visible
METAR YWGT 232200Z AUTO 00000KT 9999 // OVC069 02/02 Q1014

10-Day Weather Forecast

Almanac

Astronomy

Jul. 24, 2016 Rise Set
Actual Time
Civil Twilight
Nautical Twilight
Astronomical Twilight
Moon
Length of Visible Light
Length of Day
Tomorrow will be .
, % of the Moon is Illuminated

Today's Extremes

Country Highs Country Lows

Community

WunderPhotos

Upload Photos

1,926,948 photos uploaded!

WunderBlog® & News

Nearby

Air Quality

  Air Quality AQ Index Pollutant
Not available.

Snow Depth

Station Depth Elevation

Earthquake Activity

City Distance Mag. Time & Date
Minimum magnitude displayed is 2.5.

Coastal Water Temperatures

Place Temperature

Stations

Nearby Weather Stations

Station Location Temp. Windchill Dew Point Humidity Wind Precip. Elev Updated Type